Latest Weather Observations for kunanyi / Mount Wellington

IDT60801

Issued at 1:02 pm EDT Saturday 3 December 2016 (issued every 30 minutes, with the page automatically refreshed every 10 minutes)

About weather observations | Map of weather stations | Latest weather observations for TAS | Other Formats
Station Details ID: 094087 Name: KUNANYI (MOUNT WELLINGTON PINNACLE) Lat: -42.90 Lon: 147.24 Height: 1260.47 m
Data from the previous 72 hours. | See also: Recent months at kunanyi / Mount Wellington
Date/Time
EDT
Temp
°C
App
Temp
°C
Dew
Point
°C
Rel
Hum
%
Delta-T
°C
Wind Press
QNH
hPa
Press
MSL
hPa
Rain since
9am
mm
Dir  Spd
km/h
Gust
km/h
Spd
kts
Gust
kts
03/01:00pm 6.3 2.5 1.6 72 2.1 NNW 11 20 6 11 - - 0.0
03/12:30pm 6.1 2.6 1.4 72 2.0 N 9 26 5 14 - - 0.0
03/12:00pm 4.9 1.8 1.6 79 1.4 NNE 7 20 4 11 - - 0.0
03/11:30am 5.8 3.0 2.1 77 1.6 S 6 9 3 5 - - 0.0
03/11:00am 6.1 1.7 0.4 67 2.4 W 13 24 7 13 - - 0.0
03/10:30am 5.4 1.6 1.5 76 1.7 WNW 11 24 6 13 - - 0.0
03/10:00am 4.3 -1.8 0.5 76 1.6 WSW 22 32 12 17 - - 0.0
03/09:30am 3.6 -2.9 0.1 78 1.4 WSW 24 33 13 18 - - 0.0
03/09:00am 3.6 -2.4 0.8 82 1.2 WSW 22 33 12 18 - - 0.2
03/08:30am 2.6 -4.6 0.5 86 0.9 WSW 28 48 15 26 - - 0.2
03/08:15am 2.1 -7.6 0.3 88 0.7 WSW 41 59 22 32 - - 0.2
03/08:00am 1.9 -5.7 0.7 92 0.5 W 30 48 16 26 - - 0.2
03/07:30am 1.8 -6.0 1.4 97 0.2 WSW 32 54 17 29 - - 0.2
03/07:16am 1.8 -6.0 1.4 97 0.2 WSW 32 52 17 28 - - 0.2
03/07:00am 1.5 -7.3 1.2 98 0.1 W 37 50 20 27 - - 0.2
03/06:36am 1.3 -9.3 0.9 97 0.2 W 46 67 25 36 - - 0.2
03/06:30am 1.2 -10.2 0.8 97 0.2 W 50 63 27 34 - - 0.2
03/06:09am 1.0 -8.3 0.3 95 0.3 W 39 59 21 32 - - 0.2
03/06:00am 0.5 -8.9 -0.2 95 0.3 WSW 39 50 21 27 - - 0.2
03/05:32am 0.8 -7.2 0.5 98 0.1 W 32 50 17 27 - - 0.2
03/05:30am 0.8 -6.8 0.5 98 0.1 W 30 41 16 22 - - 0.2
03/05:00am 0.7 -9.0 0.4 98 0.1 W 41 54 22 29 - - 0.2
03/04:30am 0.8 -8.2 0.4 97 0.2 W 37 48 20 26 - - 0.2
03/04:04am 0.9 -9.2 0.3 96 0.2 W 43 61 23 33 - - 0.2
03/04:00am 0.8 -9.0 0.1 95 0.3 W 41 56 22 30 - - 0.2
03/03:33am 1.0 -10.1 -0.3 91 0.5 W 48 70 26 38 - - 0.2
03/03:30am 0.8 -10.4 -0.5 91 0.5 W 48 57 26 31 - - 0.2
03/03:00am 0.4 -11.6 -0.7 92 0.4 W 52 69 28 37 - - 0.2
03/02:33am 1.1 -10.4 0.2 94 0.4 W 50 69 27 37 - - 0.2
03/02:30am 1.0 -10.4 0.4 96 0.2 W 50 63 27 34 - - 0.2
03/02:00am 0.8 -8.5 0.4 97 0.2 W 39 50 21 27 - - 0.2
03/01:30am 1.0 -9.3 0.3 95 0.3 W 44 61 24 33 - - 0.2
03/01:01am 1.1 -10.4 -0.4 90 0.6 W 50 70 27 38 - - 0.2
03/01:00am 1.2 -10.7 -0.4 89 0.6 W 52 70 28 38 - - 0.2
03/12:30am 0.7 -10.5 -0.9 89 0.6 W 48 61 26 33 - - 0.2
03/12:00am 0.9 -10.8 -1.7 83 1.0 W 50 67 27 36 - - 0.2
 
Date/Time
EDT
Temp
°C
App
Temp
°C
Dew
Point
°C
Rel
Hum
%
Delta-T
°C
Wind Press
QNH
hPa
Press
MSL
hPa
Rain since
9am
mm
Dir  Spd
km/h
Gust
km/h
Spd
kts
Gust
kts
02/11:30pm 1.2 -8.7 -1.2 84 0.9 WNW 41 56 22 30 - - 0.2
02/11:07pm 1.3 -10.4 -1.8 80 1.2 W 50 69 27 37 - - 0.2
02/11:00pm 1.2 -10.2 -1.9 80 1.2 W 48 63 26 34 - - 0.2
02/10:44pm 1.2 -8.8 -1.7 81 1.1 W 41 63 22 34 - - 0.2
02/10:30pm 1.2 -7.7 -1.9 80 1.2 WNW 35 48 19 26 - - 0.2
02/10:00pm 1.5 -8.2 -2.6 74 1.6 WNW 39 63 21 34 - - 0.2
02/09:30pm 1.8 -5.6 -0.9 82 1.1 WNW 28 52 15 28 - - 0.2
02/09:27pm 1.9 -5.5 -0.7 83 1.0 WNW 28 52 15 28 - - 0.2
02/09:00pm 1.9 -5.8 -0.3 85 0.9 WNW 30 43 16 23 - - 0.2
02/08:30pm 2.0 -6.9 -2.0 75 1.5 W 35 52 19 28 - - 0.2
02/08:00pm 3.1 -7.3 -5.3 54 3.0 W 41 59 22 32 - - 0.2
02/07:30pm 3.6 -4.5 0.7 81 1.2 WNW 33 48 18 26 - - 0.2
02/07:00pm 5.1 -2.9 0.1 70 2.1 W 32 44 17 24 - - 0.2
02/06:30pm 4.6 -3.7 -0.4 70 2.0 WNW 33 48 18 26 - - 0.2
02/06:00pm 6.5 -3.0 -0.5 61 2.9 WNW 39 48 21 26 - - 0.2
02/05:43pm 7.2 -2.4 -1.5 54 3.6 WNW 39 57 21 31 - - 0.2
02/05:30pm 7.1 -3.3 -1.6 54 3.5 W 43 57 23 31 - - 0.2
02/05:00pm 7.4 -2.6 -1.8 52 3.7 WNW 41 54 22 29 - - 0.2
02/04:39pm 7.3 -1.7 -3.0 48 4.1 W 35 54 19 29 - - 0.2
02/04:30pm 8.0 -1.7 -2.0 49 4.1 W 39 54 21 29 - - 0.2
02/04:00pm 8.1 -1.6 -2.0 49 4.1 W 39 54 21 29 - - 0.2
02/03:58pm 8.4 -0.4 -1.1 51 4.0 W 35 54 19 29 - - 0.2
02/03:30pm 9.2 0.1 -0.4 51 4.1 W 37 50 20 27 - - 0.2
02/03:13pm 9.9 2.3 0.5 52 4.1 W 30 50 16 27 - - 0.2
02/03:00pm 9.1 1.0 -0.5 51 4.1 W 32 43 17 23 - - 0.2
02/02:33pm 8.2 0.8 -0.8 53 3.8 W 28 50 15 27 - - 0.2
02/02:30pm 7.9 1.2 -1.3 52 3.8 W 24 50 13 27 - - 0.2
02/02:03pm 7.7 0.0 0.2 59 3.2 W 30 48 16 26 - - 0.2
02/02:00pm 8.5 0.3 0.5 57 3.5 W 33 48 18 26 - - 0.2
02/01:54pm 8.3 0.3 0.3 57 3.4 W 32 50 17 27 - - 0.2
02/01:30pm 8.1 0.4 -0.1 56 3.5 W 30 48 16 26 - - 0.2
02/01:00pm 7.6 -2.6 -0.1 58 3.3 W 43 63 23 34 - - 0.2
02/12:31pm 6.3 -3.4 0.2 65 2.6 WSW 41 59 22 32 - - 0.2
02/12:30pm 6.7 -3.4 0.6 65 2.6 WSW 43 59 23 32 - - 0.2
02/12:00pm 5.6 -3.2 1.2 73 1.9 WSW 37 63 20 34 - - 0.2
02/11:33am 6.7 -3.1 2.2 73 2.0 W 43 61 23 33 - - 0.2
02/11:30am 6.4 -3.5 1.5 71 2.1 W 43 59 23 32 - - 0.2
02/11:25am 6.5 -3.9 2.2 74 1.9 W 46 67 25 36 - - 0.2
02/11:00am 5.0 -8.2 0.2 71 2.0 W 59 82 32 44 - - 0.2
02/10:30am 5.3 -5.2 3.5 88 0.8 W 48 72 26 39 - - 0.2
02/10:00am 4.3 -5.9 3.0 91 0.6 W 46 70 25 38 - - 0.2
02/09:58am 4.1 -5.2 2.8 91 0.6 W 41 70 22 38 - - 0.2
02/09:51am 4.6 -2.8 4.0 96 0.3 W 32 52 17 28 - - 0.2
02/09:30am 4.7 -5.8 3.5 92 0.5 W 48 63 26 34 - - 0.2
02/09:00am 4.6 -4.1 4.3 98 0.1 W 39 61 21 33 - - 1.6
02/08:37am 4.7 -3.2 4.4 98 0.1 W 35 54 19 29 - - 1.6
02/08:30am 4.5 -4.2 4.1 97 0.2 W 39 54 21 29 - - 1.6
02/08:08am 5.1 -3.9 4.5 96 0.3 W 41 59 22 32 - - 1.6
02/08:00am 4.8 -3.8 4.5 98 0.1 W 39 54 21 29 - - 1.6
02/07:57am 4.5 -3.4 4.2 98 0.1 W 35 54 19 29 - - 1.6
02/07:30am 4.4 -4.4 3.8 96 0.3 W 39 54 21 29 - - 1.6
02/07:00am 4.2 -5.0 3.3 94 0.4 W 41 54 22 29 - - 1.6
02/06:30am 3.7 -5.2 3.3 97 0.2 W 39 54 21 29 - - 1.6
02/06:00am 3.3 -4.9 2.6 95 0.3 W 35 46 19 25 - - 1.6
02/05:30am 3.3 -4.4 2.3 93 0.4 W 32 52 17 28 - - 1.6
02/05:28am 3.3 -3.6 2.3 93 0.4 W 28 46 15 25 - - 1.6
02/05:00am 3.6 -1.5 2.9 95 0.3 WSW 19 28 10 15 - - 1.6
02/04:30am 3.9 -1.3 3.5 97 0.2 WSW 20 26 11 14 - - 1.6
02/04:00am 4.5 -3.0 4.2 98 0.1 WNW 33 43 18 23 - - 1.6
02/03:30am 5.0 -1.5 4.9 99 0.0 WNW 28 46 15 25 - - 1.6
02/03:00am 5.5 -0.1 5.4 99 0.0 WNW 24 35 13 19 - - 1.6
02/02:30am 6.2 0.7 6.1 99 0.0 WNW 24 35 13 19 - - 1.6
02/02:00am 6.7 1.0 6.6 99 0.0 NW 26 39 14 21 - - 1.4
02/01:30am 7.3 1.4 7.3 100 0.0 NW 28 37 15 20 - - 1.4
02/01:00am 7.6 2.1 7.6 100 0.0 NNW 26 32 14 17 - - 1.4
02/12:30am 8.6 4.1 8.6 100 0.0 NW 22 28 12 15 - - 1.4
02/12:00am 8.9 5.4 8.9 100 0.0 NW 17 20 9 11 - - 1.4
 
Date/Time
EDT
Temp
°C
App
Temp
°C
Dew
Point
°C
Rel
Hum
%
Delta-T
°C
Wind Press
QNH
hPa
Press
MSL
hPa
Rain since
9am
mm
Dir  Spd
km/h
Gust
km/h
Spd
kts
Gust
kts
01/11:30pm 8.0 5.1 8.0 100 0.0 W 13 17 7 9 - - 1.4
01/11:00pm 8.0 3.9 7.9 99 0.1 W 19 28 10 15 - - 1.2
01/10:30pm 9.6 6.3 9.6 100 0.0 WNW 17 19 9 10 - - 1.2
01/10:00pm 9.8 5.6 9.8 100 0.0 NNW 22 28 12 15 - - 1.2
01/09:30pm 9.8 4.9 9.8 100 0.0 NNW 26 33 14 18 - - 0.4
01/09:00pm 10.2 4.6 10.2 100 0.0 N 30 41 16 22 - - 0.0
01/08:30pm 10.1 4.5 10.1 100 0.0 N 30 44 16 24 - - 0.0
01/08:00pm 10.0 4.4 10.0 100 0.0 N 30 35 16 19 - - 0.0
01/07:30pm 10.0 5.5 10.0 100 0.0 N 24 35 13 19 - - 0.0
01/07:00pm 10.0 6.2 9.9 99 0.1 N 20 33 11 18 - - 0.0
01/06:30pm 10.1 6.9 10.0 99 0.1 N 17 24 9 13 - - 0.0
01/06:00pm 10.1 6.9 10.0 99 0.1 NNE 17 20 9 11 - - 0.0
01/05:30pm 10.1 7.3 10.0 99 0.1 NNE 15 20 8 11 - - 0.0
01/05:00pm 10.4 7.7 10.2 99 0.1 NE 15 22 8 12 - - 0.0
01/04:30pm 10.5 8.5 10.2 98 0.2 NNE 11 20 6 11 - - 0.0
01/04:00pm 10.6 8.6 10.1 97 0.3 NNE 11 17 6 9 - - 0.0
01/03:30pm 10.2 8.7 9.3 94 0.5 NNE 7 17 4 9 - - 0.0
01/03:00pm 10.3 8.2 9.7 96 0.3 NNE 11 22 6 12 - - 0.0
01/02:30pm 10.4 8.0 9.9 97 0.3 NNE 13 19 7 10 - - 0.0
01/02:00pm 10.5 8.0 9.6 94 0.5 NNE 13 24 7 13 - - 0.0
01/01:30pm 10.6 7.9 8.9 89 0.9 NNE 13 22 7 12 - - 0.0
01/01:00pm 9.7 6.9 8.6 93 0.6 N 13 22 7 12 - - 0.0
01/12:30pm 10.2 6.8 9.1 93 0.6 N 17 24 9 13 - - 0.0
01/12:00pm 9.2 5.7 8.9 98 0.2 N 17 28 9 15 - - 0.0
01/11:30am 9.3 6.1 8.5 95 0.4 N 15 22 8 12 - - 0.0
01/11:00am 8.4 5.1 8.1 98 0.2 N 15 22 8 12 - - 0.0
01/10:30am 8.5 4.5 8.2 98 0.2 N 19 26 10 14 - - 0.0
01/10:00am 8.4 4.2 8.1 98 0.2 N 20 30 11 16 - - 0.0
01/09:30am 8.2 4.0 8.1 99 0.1 N 20 24 11 13 - - 0.0
01/09:00am 7.8 3.5 7.1 95 0.4 NNW 19 24 10 13 - - 3.4
01/08:30am 9.0 4.0 6.4 84 1.3 NNW 22 30 12 16 - - 3.4
01/08:00am 7.7 2.5 7.1 96 0.3 NNW 24 33 13 18 - - 3.4
01/07:30am 7.2 2.6 6.5 95 0.3 N 20 26 11 14 - - 3.4
01/07:00am 7.1 2.1 6.4 95 0.3 NNW 22 28 12 15 - - 3.4
01/06:30am 6.6 2.2 6.5 99 0.0 NW 19 24 10 13 - - 3.4
01/06:00am 6.2 1.7 6.1 99 0.0 NW 19 24 10 13 - - 3.4
01/05:30am 6.5 2.1 6.4 99 0.0 NW 19 28 10 15 - - 3.2
01/05:00am 7.0 3.8 6.9 99 0.0 NNW 13 19 7 10 - - 3.2
01/04:30am 7.4 5.1 7.4 100 0.0 NNW 9 13 5 7 - - 3.2
01/04:00am 7.5 5.2 7.5 100 0.0 NNW 9 13 5 7 - - 3.0
01/03:30am 7.5 5.6 7.5 100 0.0 NNW 7 9 4 5 - - 2.8
01/03:00am 7.4 5.4 7.3 99 0.1 NNE 7 9 4 5 - - 2.6
01/02:30am 7.2 5.2 7.1 99 0.0 NNE 7 9 4 5 - - 2.6
01/02:00am 7.1 5.1 7.0 99 0.0 NE 7 13 4 7 - - 2.6
01/01:30am 7.4 5.6 7.3 99 0.1 E 6 11 3 6 - - 2.6
01/01:00am 7.4 5.6 7.3 99 0.1 ESE 6 7 3 4 - - 2.6
01/12:30am 7.4 5.4 7.3 99 0.1 E 7 7 4 4 - - 2.6
01/12:00am 7.4 6.0 7.3 99 0.1 ESE 4 4 2 2 - - 2.4
 
Date/Time
EDT
Temp
°C
App
Temp
°C
Dew
Point
°C
Rel
Hum
%
Delta-T
°C
Wind Press
QNH
hPa
Press
MSL
hPa
Rain since
9am
mm
Dir  Spd
km/h
Gust
km/h
Spd
kts
Gust
kts
30/11:30pm 7.2 5.8 7.1 99 0.0 ESE 4 6 2 3 - - 2.4
30/11:00pm 7.2 5.8 7.1 99 0.0 ESE 4 6 2 3 - - 1.8
30/10:30pm 7.2 5.4 7.1 99 0.0 ESE 6 9 3 5 - - 0.8
30/10:00pm 7.2 4.4 7.1 99 0.0 SSE 11 13 6 7 - - 0.6
30/09:30pm 7.2 4.1 7.1 99 0.0 SE 13 17 7 9 - - 0.4
30/09:00pm 7.3 4.6 7.2 99 0.1 SSE 11 13 6 7 - - 0.2
30/08:30pm 7.3 5.3 7.2 99 0.1 SE 7 9 4 5 - - 0.2
30/08:00pm 7.2 5.2 7.1 99 0.0 SSE 7 9 4 5 - - 0.2
30/07:30pm 7.3 5.3 7.2 99 0.1 SSE 7 9 4 5 - - 0.0
30/07:00pm 7.4 5.1 7.3 99 0.1 SE 9 11 5 6 - - 0.0
30/06:30pm 7.4 5.1 7.3 99 0.1 SE 9 11 5 6 - - 0.0
30/06:00pm 7.3 4.6 7.2 99 0.1 SE 11 17 6 9 - - 0.0
30/05:30pm 7.3 4.9 7.2 99 0.1 SSE 9 15 5 8 - - 0.0
30/05:00pm 7.3 4.9 7.0 98 0.1 SE 9 13 5 7 - - 0.0
30/04:30pm 7.6 5.3 7.3 98 0.2 SSE 9 13 5 7 - - 0.0
30/04:00pm 8.0 5.7 7.4 96 0.3 ESE 9 17 5 9 - - 0.0
30/03:30pm 7.7 5.4 7.3 97 0.2 SE 9 17 5 9 - - 0.0
30/03:00pm 8.3 5.9 7.2 93 0.6 ENE 9 13 5 7 - - 0.0
30/02:30pm 7.6 5.7 6.7 94 0.4 ESE 6 9 3 5 - - 0.0
30/02:00pm 7.3 5.2 6.7 96 0.3 ESE 7 13 4 7 - - 0.0
30/01:30pm 7.3 4.8 6.6 95 0.3 ESE 9 17 5 9 - - 0.0

Other Formats:

Comma delimited format used in spreadsheet applications
http://www.bom.gov.au/fwo/IDT60801/IDT60801.95979.axf

JavaScript Object Notation format (JSON) in row-major order
http://www.bom.gov.au/fwo/IDT60801/IDT60801.95979.json